createdAt,value
2022-10-08T00:01:17.668Z,96221.50
2022-10-08T00:03:51.472Z,96226.97
2022-10-08T00:06:38.799Z,96222.31
2022-10-08T00:09:07.268Z,96234.00
2022-10-08T00:11:38.923Z,96226.97
2022-10-08T00:14:07.525Z,96240.34
2022-10-08T00:16:37.806Z,96230.91
2022-10-08T00:19:13.281Z,96226.97
2022-10-08T00:21:43.837Z,96238.34
2022-10-08T00:24:15.326Z,96232.84
2022-10-08T00:26:44.076Z,96237.16
2022-10-08T00:29:14.049Z,96234.00
2022-10-08T00:31:44.336Z,96222.50
2022-10-08T00:34:20.606Z,96218.19
2022-10-08T00:36:51.643Z,96226.81
2022-10-08T00:39:20.922Z,96219.34
2022-10-08T00:41:51.517Z,96224.84
2022-10-08T00:44:47.210Z,96218.88
2022-10-08T00:47:24.615Z,96229.88
2022-10-08T00:49:55.451Z,96224.44
2022-10-08T00:52:25.093Z,96211.06
2022-10-08T00:54:52.245Z,96216.50
2022-10-08T00:57:21.762Z,96215.66
2022-10-08T00:59:48.714Z,96223.84
2022-10-08T01:02:16.035Z,96214.59
2022-10-08T01:04:44.129Z,96216.34
2022-10-08T01:07:20.121Z,96209.19
2022-10-08T01:09:50.121Z,96203.31
2022-10-08T01:12:46.130Z,96205.69
2022-10-08T01:15:13.337Z,96201.38
2022-10-08T01:17:56.469Z,96208.41
2022-10-08T01:20:44.109Z,96201.34
2022-10-08T01:23:42.345Z,96201.28
2022-10-08T01:26:23.612Z,96194.31
2022-10-08T01:29:12.902Z,96202.84
2022-10-08T01:31:47.305Z,96202.06
2022-10-08T01:34:28.986Z,96201.28
2022-10-08T01:36:58.560Z,96197.38
2022-10-08T01:39:28.982Z,96205.09
2022-10-08T01:41:56.697Z,96206.69
2022-10-08T01:44:28.210Z,96206.97
2022-10-08T01:46:59.269Z,96203.88
2022-10-08T01:49:31.528Z,96206.69
2022-10-08T01:52:04.938Z,96194.91
2022-10-08T01:54:34.336Z,96198.44
2022-10-08T01:57:05.754Z,96198.75
2022-10-08T01:59:42.770Z,96187.97
2022-10-08T02:02:19.502Z,96199.84
2022-10-08T02:04:47.482Z,96189.53
2022-10-08T02:07:24.054Z,96203.63
2022-10-08T02:09:53.841Z,96195.41
2022-10-08T02:12:22.998Z,96207.88
2022-10-08T02:14:53.995Z,96196.72
2022-10-08T02:18:07.722Z,96206.84
2022-10-08T02:20:47.522Z,96207.66
2022-10-08T02:23:32.434Z,96195.13
2022-10-08T02:26:00.553Z,96206.47
2022-10-08T02:28:43.317Z,96199.66
2022-10-08T02:31:19.556Z,96198.25
2022-10-08T02:33:55.573Z,96199.09
2022-10-08T02:36:28.374Z,96202.25
2022-10-08T02:38:59.270Z,96203.59
2022-10-08T02:41:33.272Z,96192.78
2022-10-08T02:44:06.445Z,96186.97
2022-10-08T02:46:37.878Z,96199.41
2022-10-08T02:49:10.087Z,96186.56
2022-10-08T02:51:41.703Z,96198.91
2022-10-08T02:54:09.133Z,96198.25
2022-10-08T02:56:48.810Z,96197.47
2022-10-08T02:59:19.183Z,96199.88
2022-10-08T03:01:50.628Z,96202.19
2022-10-08T03:04:26.199Z,96197.03
2022-10-08T03:06:55.060Z,96197.47
2022-10-08T03:09:25.387Z,96212.94
2022-10-08T03:11:54.855Z,96209.91
2022-10-08T03:14:24.139Z,96214.03
2022-10-08T03:16:51.248Z,96223.50
2022-10-08T03:19:18.713Z,96213.06
2022-10-08T03:21:48.222Z,96216.84
2022-10-08T03:24:15.917Z,96222.34
2022-10-08T03:26:43.249Z,96218.50
2022-10-08T03:29:11.076Z,96218.09
2022-10-08T03:31:38.149Z,96226.41
2022-10-08T03:34:05.733Z,96224.81
2022-10-08T03:36:32.783Z,96230.66
2022-10-08T03:38:59.861Z,96235.75
2022-10-08T03:41:27.059Z,96229.53
2022-10-08T03:43:54.204Z,96226.34
2022-10-08T03:46:21.377Z,96225.81
2022-10-08T03:48:49.945Z,96232.47
2022-10-08T03:51:18.474Z,96229.19
2022-10-08T03:53:46.078Z,96241.03
2022-10-08T03:56:19.144Z,96237.13
2022-10-08T03:58:47.330Z,96238.66
2022-10-08T04:01:16.927Z,96239.53
2022-10-08T04:03:45.395Z,96241.78
2022-10-08T04:06:12.586Z,96233.06
2022-10-08T04:08:40.128Z,96237.47
2022-10-08T04:11:10.326Z,96238.72
2022-10-08T04:13:38.393Z,96238.19
2022-10-08T04:16:08.493Z,96242.50
2022-10-08T04:18:35.762Z,96242.81
2022-10-08T04:21:05.945Z,96243.72
2022-10-08T04:23:34.970Z,96243.25
2022-10-08T04:26:02.213Z,96242.84
2022-10-08T04:28:29.688Z,96246.50
2022-10-08T04:31:02.689Z,96241.38
2022-10-08T04:33:31.577Z,96243.72
2022-10-08T04:36:00.351Z,96245.50
2022-10-08T04:38:28.782Z,96241.59
2022-10-08T04:41:16.322Z,96242.34
2022-10-08T04:43:44.583Z,96243.50
2022-10-08T04:46:14.211Z,96244.13
2022-10-08T04:48:46.641Z,96240.56
2022-10-08T04:51:14.430Z,96246.09
2022-10-08T04:53:41.549Z,96241.81
2022-10-08T04:56:18.367Z,96244.13
2022-10-08T04:58:45.605Z,96252.81
2022-10-08T05:01:15.228Z,96245.13
2022-10-08T05:03:45.714Z,96254.22
2022-10-08T05:06:14.877Z,96260.09
2022-10-08T05:08:42.451Z,96259.00
2022-10-08T05:11:09.806Z,96256.91
2022-10-08T05:13:36.931Z,96260.03
2022-10-08T05:16:06.257Z,96259.94
2022-10-08T05:18:34.349Z,96263.75
2022-10-08T05:21:22.422Z,96266.50
2022-10-08T05:23:55.346Z,96263.75
2022-10-08T05:26:41.581Z,96262.72
2022-10-08T05:29:12.582Z,96272.91
2022-10-08T05:31:39.719Z,96271.88
2022-10-08T05:34:06.824Z,96272.16
2022-10-08T05:36:34.543Z,96277.56
2022-10-08T05:39:05.138Z,96275.75
2022-10-08T05:41:34.924Z,96284.09
2022-10-08T05:44:02.097Z,96273.88
2022-10-08T05:46:31.376Z,96277.81
2022-10-08T05:49:01.613Z,96287.03
2022-10-08T05:51:29.751Z,96282.50
2022-10-08T05:53:59.379Z,96275.44
2022-10-08T05:56:27.497Z,96277.03
2022-10-08T05:58:54.553Z,96279.75
2022-10-08T06:01:28.017Z,96272.91
2022-10-08T06:04:04.364Z,96278.72
2022-10-08T06:06:39.364Z,96284.25
2022-10-08T06:09:08.162Z,96282.66
2022-10-08T06:11:36.869Z,96291.34
2022-10-08T06:14:06.971Z,96295.44
2022-10-08T06:16:35.160Z,96307.38
2022-10-08T06:19:03.774Z,96306.66
2022-10-08T06:21:31.948Z,96307.88
2022-10-08T06:24:01.202Z,96303.84
2022-10-08T06:26:35.402Z,96307.81
2022-10-08T06:29:10.454Z,96319.72
2022-10-08T06:31:37.622Z,96318.13
2022-10-08T06:34:05.344Z,96319.97
2022-10-08T06:36:33.681Z,96320.47
2022-10-08T06:39:03.973Z,96318.84
2022-10-08T06:41:33.177Z,96324.84
2022-10-08T06:44:01.252Z,96320.63
2022-10-08T06:46:31.160Z,96323.53
2022-10-08T06:48:59.093Z,96323.56
2022-10-08T06:51:26.653Z,96329.44
2022-10-08T06:53:57.002Z,96332.34
2022-10-08T06:56:25.021Z,96337.41
2022-10-08T06:58:52.721Z,96340.97
2022-10-08T07:01:33.732Z,96340.09
2022-10-08T07:04:02.223Z,96353.41
2022-10-08T07:06:29.849Z,96357.28
2022-10-08T07:08:59.152Z,96358.75
2022-10-08T07:11:27.638Z,96352.41
2022-10-08T07:13:55.928Z,96352.00
2022-10-08T07:16:25.542Z,96361.81
2022-10-08T07:18:55.066Z,96359.53
2022-10-08T07:21:22.736Z,96365.13
2022-10-08T07:23:50.679Z,96370.56
2022-10-08T07:26:19.836Z,96376.34
2022-10-08T07:29:02.460Z,96378.66
2022-10-08T07:31:35.396Z,96382.22
2022-10-08T07:34:05.839Z,96391.19
2022-10-08T07:36:33.397Z,96388.91
2022-10-08T07:39:18.987Z,96384.97
2022-10-08T07:41:46.691Z,96383.41
2022-10-08T07:44:14.915Z,96388.97
2022-10-08T07:46:48.435Z,96389.78
2022-10-08T07:49:19.202Z,96400.88
2022-10-08T07:51:47.101Z,96403.63
2022-10-08T07:54:16.805Z,96396.28
2022-10-08T07:56:44.885Z,96396.38
2022-10-08T07:59:15.063Z,96405.69
2022-10-08T08:01:43.011Z,96404.25
2022-10-08T08:04:11.193Z,96393.38
2022-10-08T08:06:44.493Z,96407.53
2022-10-08T08:09:12.099Z,96400.50
2022-10-08T08:11:40.156Z,96406.72
2022-10-08T08:14:08.014Z,96406.00
2022-10-08T08:16:35.183Z,96410.41
2022-10-08T08:19:03.067Z,96407.00
2022-10-08T08:21:35.684Z,96410.22
2022-10-08T08:24:06.075Z,96410.69
2022-10-08T08:26:35.973Z,96411.16
2022-10-08T08:29:06.831Z,96411.16
2022-10-08T08:31:36.671Z,96417.84
2022-10-08T08:34:07.063Z,96421.44
2022-10-08T08:36:37.173Z,96426.59
2022-10-08T08:39:05.300Z,96426.28
2022-10-08T08:42:02.769Z,96434.22
2022-10-08T08:45:18.869Z,96440.13
2022-10-08T08:48:26.263Z,96444.78
2022-10-08T08:50:58.595Z,96456.16
2022-10-08T08:53:26.306Z,96457.72
2022-10-08T08:55:57.935Z,96462.78
2022-10-08T08:58:43.158Z,96468.28
2022-10-08T09:01:10.246Z,96471.00
2022-10-08T09:03:43.381Z,96470.25
2022-10-08T09:06:14.433Z,96472.69
2022-10-08T09:08:56.237Z,96480.50
2022-10-08T09:11:26.995Z,96484.47
2022-10-08T09:14:00.458Z,96485.66
2022-10-08T09:16:28.141Z,96497.34
2022-10-08T09:18:55.606Z,96495.00
2022-10-08T09:21:24.857Z,96500.19
2022-10-08T09:23:51.898Z,96495.16
2022-10-08T09:26:23.359Z,96494.72
2022-10-08T09:28:54.128Z,96495.63
2022-10-08T09:31:24.167Z,96495.56
2022-10-08T09:34:17.438Z,96502.66
2022-10-08T09:36:46.474Z,96505.88
2022-10-08T09:39:29.433Z,96500.38
2022-10-08T09:42:09.271Z,96513.00
2022-10-08T09:44:45.714Z,96510.22
2022-10-08T09:47:24.071Z,96514.56
2022-10-08T09:50:15.923Z,96521.31
2022-10-08T09:52:43.108Z,96531.91
2022-10-08T09:55:19.984Z,96530.38
2022-10-08T09:57:51.153Z,96525.59
2022-10-08T10:00:31.994Z,96531.13
2022-10-08T10:03:00.370Z,96522.47
2022-10-08T10:05:30.907Z,96523.31
2022-10-08T10:07:58.045Z,96536.69
2022-10-08T10:10:35.580Z,96534.22
2022-10-08T10:13:11.730Z,96539.81
2022-10-08T10:15:44.462Z,96545.28
2022-10-08T10:18:18.390Z,96546.91
2022-10-08T10:20:53.367Z,96535.91
2022-10-08T10:23:34.020Z,96543.81
2022-10-08T10:26:08.912Z,96540.66
2022-10-08T10:28:44.286Z,96547.75
2022-10-08T10:31:19.402Z,96550.13
2022-10-08T10:33:52.439Z,96546.53
2022-10-08T10:36:22.035Z,96550.47
2022-10-08T10:38:56.448Z,96555.63
2022-10-08T10:41:52.253Z,96558.78
2022-10-08T10:44:26.621Z,96553.25
2022-10-08T10:46:57.860Z,96551.69
2022-10-08T10:49:33.820Z,96559.56
2022-10-08T10:52:41.994Z,96560.34
2022-10-08T10:55:35.517Z,96564.59
2022-10-08T10:58:20.456Z,96561.09
2022-10-08T11:01:09.320Z,96561.09
2022-10-08T11:04:10.127Z,96557.22
2022-10-08T11:06:52.265Z,96557.19
2022-10-08T11:09:41.223Z,96568.66
2022-10-08T11:12:48.668Z,96562.31
2022-10-08T11:15:37.189Z,96563.88
2022-10-08T11:18:48.863Z,96571.34
2022-10-08T11:21:36.131Z,96565.06
2022-10-08T11:24:34.395Z,96560.38
2022-10-08T11:27:15.584Z,96561.94
2022-10-08T11:30:14.062Z,96557.53
2022-10-08T11:32:43.710Z,96563.53
2022-10-08T11:35:22.898Z,96569.06
2022-10-08T11:38:01.243Z,96560.31
2022-10-08T11:40:43.284Z,96564.31
2022-10-08T11:43:16.758Z,96569.00
2022-10-08T11:45:46.046Z,96561.91
2022-10-08T11:48:33.722Z,96570.59
2022-10-08T11:51:18.812Z,96564.66
2022-10-08T11:54:07.826Z,96559.19
2022-10-08T11:56:38.533Z,96563.16
2022-10-08T11:59:18.641Z,96556.03
2022-10-08T12:01:51.214Z,96567.88
2022-10-08T12:04:28.553Z,96564.31
2022-10-08T12:07:17.197Z,96557.22
2022-10-08T12:10:03.296Z,96560.34
2022-10-08T12:12:48.991Z,96563.50
2022-10-08T12:15:25.047Z,96558.78
2022-10-08T12:17:54.691Z,96553.28
2022-10-08T12:20:25.347Z,96565.09
2022-10-08T12:23:12.068Z,96554.84
2022-10-08T12:26:04.773Z,96545.34
2022-10-08T12:28:37.900Z,96538.59
2022-10-08T12:31:20.371Z,96558.69
2022-10-08T12:34:19.584Z,96549.88
2022-10-08T12:37:01.994Z,96543.53
2022-10-08T12:39:41.035Z,96550.72
2022-10-08T12:42:19.988Z,96540.09
2022-10-08T12:44:56.771Z,96547.84
2022-10-08T12:47:23.814Z,96550.59
2022-10-08T12:49:59.788Z,96541.34
2022-10-08T12:52:26.950Z,96537.09
2022-10-08T12:54:56.566Z,96536.50
2022-10-08T12:57:30.083Z,96529.63
2022-10-08T13:00:05.980Z,96538.50
2022-10-08T13:02:41.052Z,96540.22
2022-10-08T13:05:29.712Z,96543.16
2022-10-08T13:07:57.572Z,96530.59
2022-10-08T13:10:29.448Z,96524.22
2022-10-08T13:13:26.255Z,96529.13
2022-10-08T13:16:00.771Z,96538.44
2022-10-08T13:18:31.873Z,96535.38
2022-10-08T13:21:03.048Z,96539.03
2022-10-08T13:23:44.775Z,96536.00
2022-10-08T13:26:38.027Z,96528.72
2022-10-08T13:29:23.806Z,96525.53
2022-10-08T13:31:52.873Z,96529.50
2022-10-08T13:34:20.208Z,96526.25
2022-10-08T13:36:53.701Z,96529.97
2022-10-08T13:39:27.535Z,96524.19
2022-10-08T13:42:00.671Z,96529.19
2022-10-08T13:44:28.534Z,96531.34
2022-10-08T13:46:58.953Z,96533.81
2022-10-08T13:49:29.487Z,96528.06
2022-10-08T13:51:58.625Z,96523.84
2022-10-08T13:54:28.519Z,96520.91
2022-10-08T13:56:55.857Z,96530.72
2022-10-08T13:59:26.988Z,96526.75
2022-10-08T14:01:56.920Z,96532.56
2022-10-08T14:04:24.124Z,96521.38
2022-10-08T14:06:54.699Z,96523.69
2022-10-08T14:09:24.871Z,96520.38
2022-10-08T14:11:56.825Z,96536.09
2022-10-08T14:14:27.589Z,96528.16
2022-10-08T14:16:54.691Z,96528.81
2022-10-08T14:19:21.972Z,96521.50
2022-10-08T14:21:52.027Z,96523.41
2022-10-08T14:24:19.112Z,96532.81
2022-10-08T14:26:46.214Z,96531.72
2022-10-08T14:29:13.304Z,96529.94
2022-10-08T14:31:40.468Z,96527.88
2022-10-08T14:34:07.588Z,96526.81
2022-10-08T14:36:37.556Z,96530.00
2022-10-08T14:39:05.356Z,96532.00
2022-10-08T14:41:33.247Z,96534.84
2022-10-08T14:44:00.289Z,96528.88
2022-10-08T14:46:27.371Z,96522.78
2022-10-08T14:48:54.450Z,96521.72
2022-10-08T14:51:21.499Z,96525.34
2022-10-08T14:53:50.157Z,96524.06
2022-10-08T14:56:17.291Z,96535.00
2022-10-08T14:58:44.347Z,96530.06
2022-10-08T15:01:11.458Z,96520.56
2022-10-08T15:03:38.592Z,96529.25
2022-10-08T15:06:05.876Z,96524.16
2022-10-08T15:08:33.613Z,96526.78
2022-10-08T15:11:04.195Z,96535.16
2022-10-08T15:13:31.312Z,96532.34
2022-10-08T15:15:58.840Z,96536.63
2022-10-08T15:18:30.119Z,96548.94
2022-10-08T15:20:59.821Z,96540.69
2022-10-08T15:23:27.424Z,96543.81
2022-10-08T15:26:03.426Z,96537.56
2022-10-08T15:28:30.642Z,96539.13
2022-10-08T15:31:15.989Z,96539.31
2022-10-08T15:33:45.234Z,96537.50
2022-10-08T15:36:37.004Z,96539.41
2022-10-08T15:39:13.387Z,96541.53
2022-10-08T15:41:47.026Z,96544.94
2022-10-08T15:44:27.641Z,96543.91
2022-10-08T15:47:01.943Z,96546.97
2022-10-08T15:49:41.896Z,96544.75
2022-10-08T15:52:19.274Z,96549.16
2022-10-08T15:54:46.954Z,96545.66
2022-10-08T15:57:15.775Z,96552.72
2022-10-08T15:59:42.898Z,96552.81
2022-10-08T16:02:16.915Z,96548.53
2022-10-08T16:04:46.812Z,96558.25
2022-10-08T16:07:14.129Z,96555.72
2022-10-08T16:09:41.171Z,96560.03
2022-10-08T16:12:08.258Z,96555.66
2022-10-08T16:14:35.426Z,96560.81
2022-10-08T16:17:02.917Z,96564.19
2022-10-08T16:19:30.137Z,96569.03
2022-10-08T16:21:58.377Z,96573.69
2022-10-08T16:24:25.723Z,96572.56
2022-10-08T16:26:52.810Z,96578.03
2022-10-08T16:29:19.932Z,96581.19
2022-10-08T16:31:47.731Z,96581.00
2022-10-08T16:34:18.191Z,96584.41
2022-10-08T16:36:48.649Z,96582.44
2022-10-08T16:39:19.097Z,96589.59
2022-10-08T16:41:47.160Z,96589.16
2022-10-08T16:44:16.550Z,96591.59
2022-10-08T16:46:44.679Z,96598.59
2022-10-08T16:49:25.400Z,96603.88
2022-10-08T16:51:59.201Z,96600.53
2022-10-08T16:54:27.426Z,96604.94
2022-10-08T16:56:54.620Z,96603.44
2022-10-08T16:59:24.407Z,96618.53
2022-10-08T17:01:54.559Z,96620.09
2022-10-08T17:04:23.534Z,96617.00
2022-10-08T17:06:50.702Z,96620.84
2022-10-08T17:09:18.078Z,96620.84
2022-10-08T17:11:45.201Z,96628.00
2022-10-08T17:14:12.615Z,96631.28
2022-10-08T17:16:40.183Z,96633.69
2022-10-08T17:19:07.310Z,96642.38
2022-10-08T17:21:34.894Z,96645.59
2022-10-08T17:24:03.144Z,96653.84
2022-10-08T17:26:30.951Z,96666.13
2022-10-08T17:29:03.574Z,96659.69
2022-10-08T17:31:31.702Z,96668.31
2022-10-08T17:34:00.293Z,96669.19
2022-10-08T17:36:30.091Z,96679.09
2022-10-08T17:38:59.383Z,96678.25
2022-10-08T17:41:29.097Z,96684.97
2022-10-08T17:43:58.999Z,96687.69
2022-10-08T17:46:32.352Z,96695.56
2022-10-08T17:48:59.893Z,96691.25
2022-10-08T17:51:29.682Z,96692.88
2022-10-08T17:54:00.478Z,96695.97
2022-10-08T17:56:28.811Z,96697.09
2022-10-08T17:58:56.385Z,96699.13
2022-10-08T18:01:32.292Z,96708.56
2022-10-08T18:04:01.588Z,96713.56
2022-10-08T18:06:29.894Z,96716.22
2022-10-08T18:08:59.245Z,96716.03
2022-10-08T18:11:28.195Z,96723.25
2022-10-08T18:13:55.363Z,96724.97
2022-10-08T18:16:22.998Z,96734.19
2022-10-08T18:18:50.130Z,96725.50
2022-10-08T18:21:18.876Z,96729.91
2022-10-08T18:23:46.714Z,96730.28
2022-10-08T18:26:24.363Z,96737.06
2022-10-08T18:28:54.494Z,96745.53
2022-10-08T18:31:25.082Z,96749.72
2022-10-08T18:33:58.157Z,96751.28
2022-10-08T18:36:28.075Z,96749.53
2022-10-08T18:39:00.625Z,96749.72
2022-10-08T18:41:36.736Z,96758.72
2022-10-08T18:44:05.833Z,96757.19
2022-10-08T18:46:36.976Z,96759.50
2022-10-08T18:49:05.265Z,96752.25
2022-10-08T18:51:32.931Z,96759.03
2022-10-08T18:54:02.244Z,96757.81
2022-10-08T18:56:31.585Z,96769.56
2022-10-08T18:59:01.758Z,96758.97
2022-10-08T19:01:34.518Z,96769.84
2022-10-08T19:04:04.227Z,96767.34
2022-10-08T19:06:36.646Z,96773.31
2022-10-08T19:09:07.446Z,96766.44
2022-10-08T19:11:44.354Z,96772.28
2022-10-08T19:14:14.189Z,96773.13
2022-10-08T19:16:41.971Z,96767.97
2022-10-08T19:19:13.894Z,96769.81
2022-10-08T19:21:41.502Z,96770.00
2022-10-08T19:24:13.473Z,96786.53
2022-10-08T19:26:40.638Z,96779.66
2022-10-08T19:29:13.128Z,96787.59
2022-10-08T19:31:40.188Z,96783.94
2022-10-08T19:34:08.005Z,96786.78
2022-10-08T19:36:37.359Z,96784.28
2022-10-08T19:39:12.884Z,96783.69
2022-10-08T19:41:40.800Z,96778.78
2022-10-08T19:44:08.619Z,96781.13
2022-10-08T19:46:35.824Z,96791.81
2022-10-08T19:49:05.520Z,96785.22
2022-10-08T19:51:33.225Z,96790.97
2022-10-08T19:54:01.069Z,96794.81
2022-10-08T19:56:29.157Z,96792.06
2022-10-08T19:58:57.132Z,96797.06
2022-10-08T20:01:33.643Z,96808.06
2022-10-08T20:04:02.894Z,96798.38
2022-10-08T20:06:31.972Z,96798.03
2022-10-08T20:09:01.710Z,96805.13
2022-10-08T20:11:31.075Z,96801.38
2022-10-08T20:13:59.988Z,96810.19
2022-10-08T20:16:32.852Z,96815.88
2022-10-08T20:19:12.507Z,96805.06
2022-10-08T20:21:39.717Z,96803.66
2022-10-08T20:24:07.035Z,96813.47
2022-10-08T20:26:36.304Z,96811.09
2022-10-08T20:29:09.824Z,96813.53
2022-10-08T20:31:46.788Z,96808.34
2022-10-08T20:34:31.109Z,96817.50
2022-10-08T20:37:01.142Z,96813.00
2022-10-08T20:39:28.778Z,96815.50
2022-10-08T20:41:56.380Z,96803.44
2022-10-08T20:44:23.469Z,96806.72
2022-10-08T20:46:51.713Z,96811.78
2022-10-08T20:49:19.552Z,96810.00
2022-10-08T20:51:46.717Z,96815.38
2022-10-08T20:54:17.153Z,96823.53
2022-10-08T20:56:44.782Z,96818.44
2022-10-08T20:59:16.401Z,96820.31
2022-10-08T21:01:44.146Z,96817.50
2022-10-08T21:04:11.246Z,96822.16
2022-10-08T21:06:41.663Z,96825.03
2022-10-08T21:09:09.291Z,96820.00
2022-10-08T21:11:37.112Z,96815.38
2022-10-08T21:14:05.435Z,96817.25
2022-10-08T21:16:34.941Z,96815.41
2022-10-08T21:19:04.545Z,96814.22
2022-10-08T21:21:32.545Z,96815.53
2022-10-08T21:24:00.617Z,96815.41
2022-10-08T21:26:29.279Z,96815.41
2022-10-08T21:28:58.774Z,96818.22
2022-10-08T21:31:26.484Z,96820.75
2022-10-08T21:33:54.466Z,96823.28
2022-10-08T21:36:27.112Z,96824.00
2022-10-08T21:38:55.108Z,96815.50
2022-10-08T21:41:24.110Z,96818.19
2022-10-08T21:43:58.423Z,96815.03
2022-10-08T21:46:28.598Z,96817.72
2022-10-08T21:49:01.390Z,96819.00
2022-10-08T21:51:29.891Z,96812.94
2022-10-08T21:54:00.156Z,96816.47
2022-10-08T21:56:30.073Z,96815.50
2022-10-08T21:58:59.336Z,96813.75
2022-10-08T22:01:29.404Z,96818.22
2022-10-08T22:03:59.591Z,96811.09
2022-10-08T22:06:28.501Z,96809.31
2022-10-08T22:08:56.996Z,96815.66
2022-10-08T22:11:24.495Z,96809.22
2022-10-08T22:13:51.847Z,96806.19
2022-10-08T22:16:20.849Z,96800.59
2022-10-08T22:18:48.293Z,96803.66
2022-10-08T22:21:18.801Z,96804.22
2022-10-08T22:23:46.657Z,96814.97
2022-10-08T22:26:22.732Z,96807.47
2022-10-08T22:28:50.341Z,96806.06
2022-10-08T22:31:19.101Z,96806.84
2022-10-08T22:33:46.686Z,96803.84
2022-10-08T22:36:21.309Z,96806.06
2022-10-08T22:38:49.386Z,96803.06
2022-10-08T22:41:19.751Z,96791.59
2022-10-08T22:43:47.084Z,96807.38
2022-10-08T22:46:22.634Z,96801.53
2022-10-08T22:48:49.873Z,96801.63
2022-10-08T22:51:21.773Z,96808.00
2022-10-08T22:53:49.055Z,96808.00
2022-10-08T22:56:22.165Z,96805.19
2022-10-08T22:58:50.162Z,96802.56
2022-10-08T23:01:19.870Z,96806.22
2022-10-08T23:03:47.823Z,96807.63
2022-10-08T23:06:16.714Z,96811.50
2022-10-08T23:08:45.234Z,96803.31
2022-10-08T23:11:12.799Z,96802.16
2022-10-08T23:13:40.065Z,96788.53
2022-10-08T23:16:07.147Z,96798.94
2022-10-08T23:18:36.432Z,96794.22
2022-10-08T23:21:06.611Z,96797.88
2022-10-08T23:23:34.985Z,96800.00
2022-10-08T23:26:05.200Z,96797.13
2022-10-08T23:28:34.330Z,96802.09
2022-10-08T23:31:09.520Z,96787.88
2022-10-08T23:33:38.335Z,96790.53
2022-10-08T23:36:07.722Z,96788.69
2022-10-08T23:38:35.703Z,96787.28
2022-10-08T23:41:04.888Z,96776.03
2022-10-08T23:43:37.048Z,96776.22
2022-10-08T23:46:05.405Z,96778.59
2022-10-08T23:48:32.840Z,96774.19
2022-10-08T23:51:00.790Z,96783.28
2022-10-08T23:53:28.640Z,96775.53
2022-10-08T23:55:55.961Z,96777.28
2022-10-08T23:58:23.103Z,96768.91
